Marukimaru No8 — JH3492 — position and weather

sailwx.info

Track history (hours):
 
Tides and Currents Weather Stations Pressure Air Temp Water Temp Dewpoint Dewpoint Depression Visibility Wind Speed Wind Dir Waves Ship Positions

Marukimaru No8

Last reported at 2018-Jun-05 06:58 UTC. Time now 2018-Jun-21 16:22 UTC.
Position N 34°24' E 134°18'.
Warning: this ship's position is 16 days out of date.

Length 84 m; draft 5.6 m.

Type: Cargo ship. MMSI: 431200607.

Date/timePositionNaut miles runAvg speedWind from/ knotsBaromVisibWave heightAir tempDewpointWater temp
2018-Jun-05 06:58N 34°24' E 134°18'611.5
2018-Jun-05 06:28N 34°22' E 134°24'511.5
2018-Jun-05 06:00N 34°19' E 134°30'1010.9
2018-Jun-05 05:07N 34°14' E 134°39'211.3
2018-Jun-05 04:59N 34°12' E 134°40'611.8
2018-Jun-05 04:30N 34°07' E 134°39'3 0.4
2018-Jun-04 19:52N 34°10' E 134°40'9 1.7
2018-Jun-04 14:48N 34°16' E 134°33'0 0.0
2018-Jun-04 13:06N 34°16' E 134°33'0 1.2
2018-Jun-04 12:59N 34°16' E 134°33'5 9.5
2018-Jun-04 12:30N 34°20' E 134°31'5 9.6
2018-Jun-04 12:00N 34°25' E 134°29'5 9.6
2018-Jun-04 11:30N 34°29' E 134°26'510.6
2018-Jun-04 11:00N 34°34' E 134°23'2 0.9
2018-Jun-04 08:30N 34°34' E 134°20'510.0
2018-Jun-04 08:00N 34°31' E 134°25'612.4
2018-Jun-04 07:30N 34°26' E 134°28'612.6
2018-Jun-04 07:00N 34°21' E 134°33'911.1
2018-Jun-04 06:11N 34°14' E 134°40'310.8
2018-Jun-04 05:57N 34°11' E 134°40'5 0.6
2018-Jun-03 21:06N 34°06' E 134°38'2 9.8
2018-Jun-03 20:55N 34°08' E 134°39'2 0.2
2018-Jun-03 10:05N 34°08' E 134°37'0 0.0
2018-Jun-02 16:53N 34°08' E 134°37'3 0.2
2018-Jun-02 02:30N 34°10' E 134°39'810.3
2018-Jun-02 01:44N 34°17' E 134°35'210.6
2018-Jun-02 01:30N 34°19' E 134°33'510.3
2018-Jun-02 01:00N 34°23' E 134°30'610.4
2018-Jun-02 00:26N 34°28' E 134°25'4 8.6
2018-Jun-02 00:00N 34°31' E 134°23'0 0.1
2018-Jun-01 23:25N 34°31' E 134°23'0 0.0
2018-Jun-01 22:58N 34°31' E 134°23'0 0.0
2018-Jun-01 22:25N 34°31' E 134°23'0 0.0
2018-Jun-01 21:58N 34°31' E 134°23'0 0.0
2018-Jun-01 21:22N 34°31' E 134°23'0 0.0
2018-Jun-01 20:58N 34°31' E 134°23'0 0.0
2018-Jun-01 20:28N 34°31' E 134°23'0 0.0
2018-Jun-01 19:58N 34°31' E 134°23'0 0.0
2018-Jun-01 19:28N 34°31' E 134°23'0 0.0
2018-Jun-01 18:55N 34°31' E 134°23'0 0.0
2018-Jun-01 18:28N 34°31' E 134°23'0 0.0
2018-Jun-01 17:58N 34°31' E 134°23'0 0.0
2018-Jun-01 17:28N 34°31' E 134°23'0 0.0
2018-Jun-01 16:58N 34°31' E 134°23'0 0.0
2018-Jun-01 16:28N 34°31' E 134°23'0 0.0
2018-Jun-01 15:58N 34°31' E 134°23'0 0.0
2018-Jun-01 15:28N 34°31' E 134°23'0 0.0
2018-Jun-01 14:55N 34°31' E 134°23'0 0.0
2018-Jun-01 14:25N 34°31' E 134°23'0 0.0
2018-Jun-01 13:58N 34°31' E 134°23'0 0.0
2018-Jun-01 13:28N 34°31' E 134°23'0 0.0
2018-Jun-01 12:58N 34°31' E 134°23'0 0.1
2018-Jun-01 12:28N 34°31' E 134°23'0 0.1
2018-Jun-01 11:58N 34°31' E 134°23'0 0.0
2018-Jun-01 11:28N 34°31' E 134°23'0 0.0
2018-Jun-01 10:43N 34°31' E 134°23'0 0.0
2018-Jun-01 10:19N 34°31' E 134°23'0 0.1
2018-Jun-01 09:46N 34°31' E 134°23'2 6.3
2018-Jun-01 09:30N 34°32' E 134°22'0 0.4
2018-Jun-01 08:53N 34°32' E 134°22'0 0.0
2018-Jun-01 08:23N 34°32' E 134°22'0 0.0
2018-Jun-01 07:59N 34°32' E 134°22'0 0.0
2018-Jun-01 06:28N 34°32' E 134°22'0 0.0
2018-Jun-01 05:58N 34°32' E 134°22'0 0.0
2018-Jun-01 05:28N 34°32' E 134°22'0 0.0
2018-Jun-01 04:58N 34°32' E 134°22'0 0.1
2018-Jun-01 04:24N 34°32' E 134°22'1 2.2
2018-Jun-01 04:00N 34°32' E 134°23'0 0.0
2018-Jun-01 03:30N 34°32' E 134°23'0 0.1
2018-Jun-01 03:00N 34°32' E 134°23'0 0.1
2018-Jun-01 02:27N 34°32' E 134°23'0 0.0
2018-Jun-01 01:57N 34°32' E 134°23'0 0.2
2018-Jun-01 01:30N 34°32' E 134°23'610.3
2018-Jun-01 00:55N 34°33' E 134°30'511.5
2018-Jun-01 00:29N 34°36' E 134°35'611.6
2018-Jun-01 00:00N 34°40' E 134°40'611.2
2018-May-31 23:30N 34°44' E 134°44'  
2018-May-29 02:27N 34°46' E 134°46'0 0.1
2018-May-29 00:32N 34°46' E 134°46'0 0.0
2018-May-29 00:28N 34°46' E 134°46'0 0.0
2018-May-28 23:57N 34°46' E 134°46'0 0.0
2018-May-28 23:21N 34°46' E 134°46'0 0.0
2018-May-28 22:55N 34°46' E 134°46'6 4.8
2018-May-28 21:34N 34°40' E 134°41'2 9.2
2018-May-28 21:23N 34°39' E 134°40'4 9.4
2018-May-28 21:00N 34°37' E 134°37'5 9.5
2018-May-28 20:27N 34°33' E 134°32'4 9.7
2018-May-28 20:00N 34°30' E 134°28'510.5
2018-May-28 19:29N 34°27' E 134°23'510.3
2018-May-28 19:00N 34°24' E 134°18'  
Track history (hours):
 
Tides and Currents Weather Stations Pressure Air Temp Water Temp Dewpoint Dewpoint Depression Visibility Wind Speed Wind Dir Waves Ship Positions

Marukimaru No8

Last reported at 2018-Jun-05 06:58 UTC. Time now 2018-Jun-21 16:22 UTC.
Position N 34°24' E 134°18'.
Warning: this ship's position is 16 days out of date.

Length 84 m; draft 5.6 m.

Type: Cargo ship. MMSI: 431200607.

Date/timePositionNaut miles runAvg speedWind from/ knotsBaromVisibWave heightAir tempDewpointWater temp
2018-Jun-05 06:58N 34°24' E 134°18'611.5
2018-Jun-05 06:28N 34°22' E 134°24'511.5
2018-Jun-05 06:00N 34°19' E 134°30'1010.9
2018-Jun-05 05:07N 34°14' E 134°39'211.3
2018-Jun-05 04:59N 34°12' E 134°40'611.8
2018-Jun-05 04:30N 34°07' E 134°39'3 0.4
2018-Jun-04 19:52N 34°10' E 134°40'9 1.7
2018-Jun-04 14:48N 34°16' E 134°33'0 0.0
2018-Jun-04 13:06N 34°16' E 134°33'0 1.2
2018-Jun-04 12:59N 34°16' E 134°33'5 9.5
2018-Jun-04 12:30N 34°20' E 134°31'5 9.6
2018-Jun-04 12:00N 34°25' E 134°29'5 9.6
2018-Jun-04 11:30N 34°29' E 134°26'510.6
2018-Jun-04 11:00N 34°34' E 134°23'2 0.9
2018-Jun-04 08:30N 34°34' E 134°20'510.0
2018-Jun-04 08:00N 34°31' E 134°25'612.4
2018-Jun-04 07:30N 34°26' E 134°28'612.6
2018-Jun-04 07:00N 34°21' E 134°33'911.1
2018-Jun-04 06:11N 34°14' E 134°40'310.8
2018-Jun-04 05:57N 34°11' E 134°40'5 0.6
2018-Jun-03 21:06N 34°06' E 134°38'2 9.8
2018-Jun-03 20:55N 34°08' E 134°39'2 0.2
2018-Jun-03 10:05N 34°08' E 134°37'0 0.0
2018-Jun-02 16:53N 34°08' E 134°37'3 0.2
2018-Jun-02 02:30N 34°10' E 134°39'810.3
2018-Jun-02 01:44N 34°17' E 134°35'210.6
2018-Jun-02 01:30N 34°19' E 134°33'510.3
2018-Jun-02 01:00N 34°23' E 134°30'610.4
2018-Jun-02 00:26N 34°28' E 134°25'4 8.6
2018-Jun-02 00:00N 34°31' E 134°23'0 0.1
2018-Jun-01 23:25N 34°31' E 134°23'0 0.0
2018-Jun-01 22:58N 34°31' E 134°23'0 0.0
2018-Jun-01 22:25N 34°31' E 134°23'0 0.0
2018-Jun-01 21:58N 34°31' E 134°23'0 0.0
2018-Jun-01 21:22N 34°31' E 134°23'0 0.0
2018-Jun-01 20:58N 34°31' E 134°23'0 0.0
2018-Jun-01 20:28N 34°31' E 134°23'0 0.0
2018-Jun-01 19:58N 34°31' E 134°23'0 0.0
2018-Jun-01 19:28N 34°31' E 134°23'0 0.0
2018-Jun-01 18:55N 34°31' E 134°23'0 0.0
2018-Jun-01 18:28N 34°31' E 134°23'0 0.0
2018-Jun-01 17:58N 34°31' E 134°23'0 0.0
2018-Jun-01 17:28N 34°31' E 134°23'0 0.0
2018-Jun-01 16:58N 34°31' E 134°23'0 0.0
2018-Jun-01 16:28N 34°31' E 134°23'0 0.0
2018-Jun-01 15:58N 34°31' E 134°23'0 0.0
2018-Jun-01 15:28N 34°31' E 134°23'0 0.0
2018-Jun-01 14:55N 34°31' E 134°23'0 0.0
2018-Jun-01 14:25N 34°31' E 134°23'0 0.0
2018-Jun-01 13:58N 34°31' E 134°23'0 0.0
2018-Jun-01 13:28N 34°31' E 134°23'0 0.0
2018-Jun-01 12:58N 34°31' E 134°23'0 0.1
2018-Jun-01 12:28N 34°31' E 134°23'0 0.1
2018-Jun-01 11:58N 34°31' E 134°23'0 0.0
2018-Jun-01 11:28N 34°31' E 134°23'0 0.0
2018-Jun-01 10:43N 34°31' E 134°23'0 0.0
2018-Jun-01 10:19N 34°31' E 134°23'0 0.1
2018-Jun-01 09:46N 34°31' E 134°23'2 6.3
2018-Jun-01 09:30N 34°32' E 134°22'0 0.4
2018-Jun-01 08:53N 34°32' E 134°22'0 0.0
2018-Jun-01 08:23N 34°32' E 134°22'0 0.0
2018-Jun-01 07:59N 34°32' E 134°22'0 0.0
2018-Jun-01 06:28N 34°32' E 134°22'0 0.0
2018-Jun-01 05:58N 34°32' E 134°22'0 0.0
2018-Jun-01 05:28N 34°32' E 134°22'0 0.0
2018-Jun-01 04:58N 34°32' E 134°22'0 0.1
2018-Jun-01 04:24N 34°32' E 134°22'1 2.2
2018-Jun-01 04:00N 34°32' E 134°23'0 0.0
2018-Jun-01 03:30N 34°32' E 134°23'0 0.1
2018-Jun-01 03:00N 34°32' E 134°23'0 0.1
2018-Jun-01 02:27N 34°32' E 134°23'0 0.0
2018-Jun-01 01:57N 34°32' E 134°23'0 0.2
2018-Jun-01 01:30N 34°32' E 134°23'610.3
2018-Jun-01 00:55N 34°33' E 134°30'511.5
2018-Jun-01 00:29N 34°36' E 134°35'611.6
2018-Jun-01 00:00N 34°40' E 134°40'611.2
2018-May-31 23:30N 34°44' E 134°44'  
2018-May-29 02:27N 34°46' E 134°46'0 0.1
2018-May-29 00:32N 34°46' E 134°46'0 0.0
2018-May-29 00:28N 34°46' E 134°46'0 0.0
2018-May-28 23:57N 34°46' E 134°46'0 0.0
2018-May-28 23:21N 34°46' E 134°46'0 0.0
2018-May-28 22:55N 34°46' E 134°46'6 4.8
2018-May-28 21:34N 34°40' E 134°41'2 9.2
2018-May-28 21:23N 34°39' E 134°40'4 9.4
2018-May-28 21:00N 34°37' E 134°37'5 9.5
2018-May-28 20:27N 34°33' E 134°32'4 9.7
2018-May-28 20:00N 34°30' E 134°28'510.5
2018-May-28 19:29N 34°27' E 134°23'510.3
2018-May-28 19:00N 34°24' E 134°18'  

Dump ship's entire track history